sensor_id;sensor_type;location;lat;lon;timestamp;temperature;humidity
2723;DHT22;1369;53.216;10.396;2022-11-20T00:02:19;2.10;99.90
2723;DHT22;1369;53.216;10.396;2022-11-20T00:04:45;2.10;99.90
2723;DHT22;1369;53.216;10.396;2022-11-20T00:07:10;2.00;99.90
2723;DHT22;1369;53.216;10.396;2022-11-20T00:09:36;2.10;99.90
2723;DHT22;1369;53.216;10.396;2022-11-20T00:12:01;2.00;99.90
2723;DHT22;1369;53.216;10.396;2022-11-20T00:14:27;2.10;99.90
2723;DHT22;1369;53.216;10.396;2022-11-20T00:16:52;2.00;99.90
2723;DHT22;1369;53.216;10.396;2022-11-20T00:19:18;2.00;99.90
2723;DHT22;1369;53.216;10.396;2022-11-20T00:21:43;2.00;99.90
2723;DHT22;1369;53.216;10.396;2022-11-20T00:24:09;2.00;99.90
2723;DHT22;1369;53.216;10.396;2022-11-20T00:26:36;2.00;99.90
2723;DHT22;1369;53.216;10.396;2022-11-20T00:29:01;1.90;99.90
2723;DHT22;1369;53.216;10.396;2022-11-20T00:31:28;1.90;99.90
2723;DHT22;1369;53.216;10.396;2022-11-20T00:33:54;1.90;99.90
2723;DHT22;1369;53.216;10.396;2022-11-20T00:36:24;1.90;99.90
2723;DHT22;1369;53.216;10.396;2022-11-20T00:38:55;1.90;99.90
2723;DHT22;1369;53.216;10.396;2022-11-20T00:41:21;1.90;99.90
2723;DHT22;1369;53.216;10.396;2022-11-20T00:43:47;1.90;99.90
2723;DHT22;1369;53.216;10.396;2022-11-20T00:46:15;1.90;99.90
2723;DHT22;1369;53.216;10.396;2022-11-20T00:48:42;1.90;99.90
2723;DHT22;1369;53.216;10.396;2022-11-20T00:51:13;1.90;99.90
2723;DHT22;1369;53.216;10.396;2022-11-20T00:53:39;1.90;99.90
2723;DHT22;1369;53.216;10.396;2022-11-20T00:56:09;1.90;99.90
2723;DHT22;1369;53.216;10.396;2022-11-20T00:58:37;1.90;99.90
2723;DHT22;1369;53.216;10.396;2022-11-20T01:01:14;1.90;99.90
2723;DHT22;1369;53.216;10.396;2022-11-20T01:03:45;1.80;99.90
2723;DHT22;1369;53.216;10.396;2022-11-20T01:06:16;1.80;99.90
2723;DHT22;1369;53.216;10.396;2022-11-20T01:08:43;1.90;99.90
2723;DHT22;1369;53.216;10.396;2022-11-20T01:11:11;1.90;99.90
2723;DHT22;1369;53.216;10.396;2022-11-20T01:13:38;1.90;99.90
2723;DHT22;1369;53.216;10.396;2022-11-20T01:16:06;1.90;99.90
2723;DHT22;1369;53.216;10.396;2022-11-20T01:18:32;1.80;99.90
2723;DHT22;1369;53.216;10.396;2022-11-20T01:21:09;1.80;99.90
2723;DHT22;1369;53.216;10.396;2022-11-20T01:23:38;1.80;99.90
2723;DHT22;1369;53.216;10.396;2022-11-20T01:26:09;1.80;99.90
2723;DHT22;1369;53.216;10.396;2022-11-20T01:28:35;1.80;99.90
2723;DHT22;1369;53.216;10.396;2022-11-20T01:31:01;1.80;99.90
2723;DHT22;1369;53.216;10.396;2022-11-20T01:33:27;1.80;99.90
2723;DHT22;1369;53.216;10.396;2022-11-20T01:35:53;1.80;99.90
2723;DHT22;1369;53.216;10.396;2022-11-20T01:38:19;1.80;99.90
2723;DHT22;1369;53.216;10.396;2022-11-20T01:40:53;1.90;99.90
2723;DHT22;1369;53.216;10.396;2022-11-20T01:43:20;1.90;99.90
2723;DHT22;1369;53.216;10.396;2022-11-20T01:48:33;1.90;99.90
2723;DHT22;1369;53.216;10.396;2022-11-20T01:51:02;1.80;99.90
2723;DHT22;1369;53.216;10.396;2022-11-20T01:53:32;1.80;99.90
2723;DHT22;1369;53.216;10.396;2022-11-20T01:56:00;1.80;99.90
2723;DHT22;1369;53.216;10.396;2022-11-20T01:58:31;1.80;99.90
2723;DHT22;1369;53.216;10.396;2022-11-20T02:00:57;1.70;99.90
2723;DHT22;1369;53.216;10.396;2022-11-20T02:03:23;1.70;99.90
2723;DHT22;1369;53.216;10.396;2022-11-20T02:08:54;1.60;99.90
2723;DHT22;1369;53.216;10.396;2022-11-20T02:11:20;1.50;99.90
2723;DHT22;1369;53.216;10.396;2022-11-20T02:13:46;1.50;99.90
2723;DHT22;1369;53.216;10.396;2022-11-20T02:16:33;1.40;99.90
2723;DHT22;1369;53.216;10.396;2022-11-20T02:19:01;1.30;99.90
2723;DHT22;1369;53.216;10.396;2022-11-20T02:21:46;1.30;99.90
2723;DHT22;1369;53.216;10.396;2022-11-20T02:24:17;1.10;99.90
2723;DHT22;1369;53.216;10.396;2022-11-20T02:26:53;1.00;99.90
2723;DHT22;1369;53.216;10.396;2022-11-20T02:29:31;0.90;99.90
2723;DHT22;1369;53.216;10.396;2022-11-20T02:31:58;0.80;99.90
2723;DHT22;1369;53.216;10.396;2022-11-20T02:34:24;0.70;99.90
2723;DHT22;1369;53.216;10.396;2022-11-20T02:36:51;0.60;99.90
2723;DHT22;1369;53.216;10.396;2022-11-20T02:39:17;0.50;99.90
2723;DHT22;1369;53.216;10.396;2022-11-20T02:41:44;0.60;99.90
2723;DHT22;1369;53.216;10.396;2022-11-20T02:44:09;0.50;99.90
2723;DHT22;1369;53.216;10.396;2022-11-20T02:46:35;0.50;99.90
2723;DHT22;1369;53.216;10.396;2022-11-20T02:49:02;0.50;99.90
2723;DHT22;1369;53.216;10.396;2022-11-20T02:51:28;0.50;99.90
2723;DHT22;1369;53.216;10.396;2022-11-20T02:53:53;0.50;99.90
2723;DHT22;1369;53.216;10.396;2022-11-20T02:56:19;0.50;99.90
2723;DHT22;1369;53.216;10.396;2022-11-20T02:58:45;0.50;99.90
2723;DHT22;1369;53.216;10.396;2022-11-20T03:01:10;0.50;99.90
2723;DHT22;1369;53.216;10.396;2022-11-20T03:03:36;0.50;99.90
2723;DHT22;1369;53.216;10.396;2022-11-20T03:06:02;0.50;99.90
2723;DHT22;1369;53.216;10.396;2022-11-20T03:08:27;0.50;99.90
2723;DHT22;1369;53.216;10.396;2022-11-20T03:10:55;0.60;99.90
2723;DHT22;1369;53.216;10.396;2022-11-20T03:13:21;0.70;99.90
2723;DHT22;1369;53.216;10.396;2022-11-20T03:15:46;0.80;99.90
2723;DHT22;1369;53.216;10.396;2022-11-20T03:18:12;0.70;99.90
2723;DHT22;1369;53.216;10.396;2022-11-20T03:20:38;0.80;99.90
2723;DHT22;1369;53.216;10.396;2022-11-20T03:23:04;0.90;99.90
2723;DHT22;1369;53.216;10.396;2022-11-20T03:25:30;0.90;99.90
2723;DHT22;1369;53.216;10.396;2022-11-20T03:27:55;1.00;99.90
2723;DHT22;1369;53.216;10.396;2022-11-20T03:30:21;1.00;99.90
2723;DHT22;1369;53.216;10.396;2022-11-20T03:32:47;1.10;99.90
2723;DHT22;1369;53.216;10.396;2022-11-20T03:35:13;1.10;99.90
2723;DHT22;1369;53.216;10.396;2022-11-20T03:37:38;1.20;99.90
2723;DHT22;1369;53.216;10.396;2022-11-20T03:40:04;1.20;99.90
2723;DHT22;1369;53.216;10.396;2022-11-20T03:42:30;1.20;99.90
2723;DHT22;1369;53.216;10.396;2022-11-20T03:45:12;1.30;99.90
2723;DHT22;1369;53.216;10.396;2022-11-20T03:47:38;1.20;99.90
2723;DHT22;1369;53.216;10.396;2022-11-20T03:50:04;1.30;99.90
2723;DHT22;1369;53.216;10.396;2022-11-20T03:52:29;1.20;99.90
2723;DHT22;1369;53.216;10.396;2022-11-20T03:54:55;1.30;99.90
2723;DHT22;1369;53.216;10.396;2022-11-20T03:57:20;1.30;99.90
2723;DHT22;1369;53.216;10.396;2022-11-20T03:59:46;1.20;99.90
2723;DHT22;1369;53.216;10.396;2022-11-20T04:02:11;1.20;99.90
2723;DHT22;1369;53.216;10.396;2022-11-20T04:04:36;1.10;99.90
2723;DHT22;1369;53.216;10.396;2022-11-20T04:07:02;1.20;99.90
2723;DHT22;1369;53.216;10.396;2022-11-20T04:09:28;1.20;99.90
2723;DHT22;1369;53.216;10.396;2022-11-20T04:11:53;1.20;99.90
2723;DHT22;1369;53.216;10.396;2022-11-20T04:14:19;1.20;99.90
2723;DHT22;1369;53.216;10.396;2022-11-20T04:16:45;1.10;99.90
2723;DHT22;1369;53.216;10.396;2022-11-20T04:19:13;1.10;99.90
2723;DHT22;1369;53.216;10.396;2022-11-20T04:21:38;1.20;99.90
2723;DHT22;1369;53.216;10.396;2022-11-20T04:24:04;1.20;99.90
2723;DHT22;1369;53.216;10.396;2022-11-20T04:26:30;1.20;99.90
2723;DHT22;1369;53.216;10.396;2022-11-20T04:28:56;1.20;99.90
2723;DHT22;1369;53.216;10.396;2022-11-20T04:31:24;1.20;99.90
2723;DHT22;1369;53.216;10.396;2022-11-20T04:33:50;1.30;99.90
2723;DHT22;1369;53.216;10.396;2022-11-20T04:36:21;1.30;99.90
2723;DHT22;1369;53.216;10.396;2022-11-20T04:38:54;1.30;99.90
2723;DHT22;1369;53.216;10.396;2022-11-20T04:41:24;1.20;99.90
2723;DHT22;1369;53.216;10.396;2022-11-20T04:43:52;1.30;99.90
2723;DHT22;1369;53.216;10.396;2022-11-20T04:46:19;1.30;99.90
2723;DHT22;1369;53.216;10.396;2022-11-20T04:48:46;1.30;99.90
2723;DHT22;1369;53.216;10.396;2022-11-20T04:51:12;1.30;99.90
2723;DHT22;1369;53.216;10.396;2022-11-20T04:53:38;1.40;99.90
2723;DHT22;1369;53.216;10.396;2022-11-20T04:56:06;1.40;99.90
2723;DHT22;1369;53.216;10.396;2022-11-20T04:58:32;1.40;99.90
2723;DHT22;1369;53.216;10.396;2022-11-20T05:01:09;1.30;99.90
2723;DHT22;1369;53.216;10.396;2022-11-20T05:03:35;1.30;99.90
2723;DHT22;1369;53.216;10.396;2022-11-20T05:06:05;1.40;99.90
2723;DHT22;1369;53.216;10.396;2022-11-20T05:08:31;1.40;99.90
2723;DHT22;1369;53.216;10.396;2022-11-20T05:11:05;1.40;99.90
2723;DHT22;1369;53.216;10.396;2022-11-20T05:13:31;1.30;99.90
2723;DHT22;1369;53.216;10.396;2022-11-20T05:16:02;1.30;99.90
2723;DHT22;1369;53.216;10.396;2022-11-20T05:18:28;1.40;99.90
2723;DHT22;1369;53.216;10.396;2022-11-20T05:20:57;1.40;99.90
2723;DHT22;1369;53.216;10.396;2022-11-20T05:23:23;1.40;99.90
2723;DHT22;1369;53.216;10.396;2022-11-20T05:25:53;1.40;99.90
2723;DHT22;1369;53.216;10.396;2022-11-20T05:28:19;1.40;99.90
2723;DHT22;1369;53.216;10.396;2022-11-20T05:30:44;1.40;99.90
2723;DHT22;1369;53.216;10.396;2022-11-20T05:33:10;1.50;99.90
2723;DHT22;1369;53.216;10.396;2022-11-20T05:35:35;1.50;99.90
2723;DHT22;1369;53.216;10.396;2022-11-20T05:38:00;1.50;99.90
2723;DHT22;1369;53.216;10.396;2022-11-20T05:40:26;1.50;99.90
2723;DHT22;1369;53.216;10.396;2022-11-20T05:42:51;1.50;99.90
2723;DHT22;1369;53.216;10.396;2022-11-20T05:45:17;1.50;99.90
2723;DHT22;1369;53.216;10.396;2022-11-20T05:47:42;1.50;99.90
2723;DHT22;1369;53.216;10.396;2022-11-20T05:50:08;1.50;99.90
2723;DHT22;1369;53.216;10.396;2022-11-20T05:52:33;1.50;99.90
2723;DHT22;1369;53.216;10.396;2022-11-20T05:54:59;1.50;99.90
2723;DHT22;1369;53.216;10.396;2022-11-20T05:57:24;1.60;99.90
2723;DHT22;1369;53.216;10.396;2022-11-20T05:59:50;1.60;99.90
2723;DHT22;1369;53.216;10.396;2022-11-20T06:02:15;1.60;99.90
2723;DHT22;1369;53.216;10.396;2022-11-20T06:04:41;1.60;99.90
2723;DHT22;1369;53.216;10.396;2022-11-20T06:07:06;1.60;99.90
2723;DHT22;1369;53.216;10.396;2022-11-20T06:09:32;1.60;99.90
2723;DHT22;1369;53.216;10.396;2022-11-20T06:11:58;1.60;99.90
2723;DHT22;1369;53.216;10.396;2022-11-20T06:14:23;1.60;99.90
2723;DHT22;1369;53.216;10.396;2022-11-20T06:16:48;1.60;99.90
2723;DHT22;1369;53.216;10.396;2022-11-20T06:19:14;1.50;99.90
2723;DHT22;1369;53.216;10.396;2022-11-20T06:21:40;1.50;99.90
2723;DHT22;1369;53.216;10.396;2022-11-20T06:24:06;1.50;99.90
2723;DHT22;1369;53.216;10.396;2022-11-20T06:26:31;1.50;99.90
2723;DHT22;1369;53.216;10.396;2022-11-20T06:28:57;1.50;99.90
2723;DHT22;1369;53.216;10.396;2022-11-20T06:31:24;1.50;99.90
2723;DHT22;1369;53.216;10.396;2022-11-20T06:33:51;1.50;99.90
2723;DHT22;1369;53.216;10.396;2022-11-20T06:36:19;1.50;99.90
2723;DHT22;1369;53.216;10.396;2022-11-20T06:38:44;1.40;99.90
2723;DHT22;1369;53.216;10.396;2022-11-20T06:41:13;1.50;99.90
2723;DHT22;1369;53.216;10.396;2022-11-20T06:43:39;1.40;99.90
2723;DHT22;1369;53.216;10.396;2022-11-20T06:46:05;1.40;99.90
2723;DHT22;1369;53.216;10.396;2022-11-20T06:48:30;1.40;99.90
2723;DHT22;1369;53.216;10.396;2022-11-20T06:50:57;1.50;99.90
2723;DHT22;1369;53.216;10.396;2022-11-20T06:53:23;1.50;99.90
2723;DHT22;1369;53.216;10.396;2022-11-20T06:55:50;1.40;99.90
2723;DHT22;1369;53.216;10.396;2022-11-20T06:58:16;1.40;99.90
2723;DHT22;1369;53.216;10.396;2022-11-20T07:00:43;1.40;99.90
2723;DHT22;1369;53.216;10.396;2022-11-20T07:03:10;1.40;99.90
2723;DHT22;1369;53.216;10.396;2022-11-20T07:05:36;1.30;99.90
2723;DHT22;1369;53.216;10.396;2022-11-20T07:08:03;1.30;99.90
2723;DHT22;1369;53.216;10.396;2022-11-20T07:10:29;1.40;99.90
2723;DHT22;1369;53.216;10.396;2022-11-20T07:12:55;1.40;99.90
2723;DHT22;1369;53.216;10.396;2022-11-20T07:15:22;1.40;99.90
2723;DHT22;1369;53.216;10.396;2022-11-20T07:17:48;1.40;99.90
2723;DHT22;1369;53.216;10.396;2022-11-20T07:20:14;1.40;99.90
2723;DHT22;1369;53.216;10.396;2022-11-20T07:22:40;1.40;99.90
2723;DHT22;1369;53.216;10.396;2022-11-20T07:25:06;1.50;99.90
2723;DHT22;1369;53.216;10.396;2022-11-20T07:27:32;1.50;99.90
2723;DHT22;1369;53.216;10.396;2022-11-20T07:29:58;1.50;99.90
2723;DHT22;1369;53.216;10.396;2022-11-20T07:32:23;1.50;99.90
2723;DHT22;1369;53.216;10.396;2022-11-20T07:34:49;1.50;99.90
2723;DHT22;1369;53.216;10.396;2022-11-20T07:37:15;1.50;99.90
2723;DHT22;1369;53.216;10.396;2022-11-20T07:39:41;1.60;99.90
2723;DHT22;1369;53.216;10.396;2022-11-20T07:42:07;1.60;99.90
2723;DHT22;1369;53.216;10.396;2022-11-20T07:44:33;1.70;99.90
2723;DHT22;1369;53.216;10.396;2022-11-20T07:46:59;1.70;99.90
2723;DHT22;1369;53.216;10.396;2022-11-20T07:49:24;1.70;99.90
2723;DHT22;1369;53.216;10.396;2022-11-20T07:51:50;1.70;99.90
2723;DHT22;1369;53.216;10.396;2022-11-20T07:54:16;1.70;99.90
2723;DHT22;1369;53.216;10.396;2022-11-20T07:56:42;1.80;99.90
2723;DHT22;1369;53.216;10.396;2022-11-20T07:59:07;1.80;99.90
2723;DHT22;1369;53.216;10.396;2022-11-20T08:01:33;1.90;99.90
2723;DHT22;1369;53.216;10.396;2022-11-20T08:03:58;1.90;99.90
2723;DHT22;1369;53.216;10.396;2022-11-20T08:06:24;2.00;99.90
2723;DHT22;1369;53.216;10.396;2022-11-20T08:08:50;2.00;99.90
2723;DHT22;1369;53.216;10.396;2022-11-20T08:11:15;2.00;99.90
2723;DHT22;1369;53.216;10.396;2022-11-20T08:14:00;2.10;99.90
2723;DHT22;1369;53.216;10.396;2022-11-20T08:16:38;2.20;99.90
2723;DHT22;1369;53.216;10.396;2022-11-20T08:19:04;2.30;99.90
2723;DHT22;1369;53.216;10.396;2022-11-20T08:21:30;2.30;99.90
2723;DHT22;1369;53.216;10.396;2022-11-20T08:23:57;2.30;99.90
2723;DHT22;1369;53.216;10.396;2022-11-20T08:26:22;2.40;99.90
2723;DHT22;1369;53.216;10.396;2022-11-20T08:28:49;2.40;99.90
2723;DHT22;1369;53.216;10.396;2022-11-20T08:31:14;2.50;99.90
2723;DHT22;1369;53.216;10.396;2022-11-20T08:33:40;2.60;99.90
2723;DHT22;1369;53.216;10.396;2022-11-20T08:36:06;2.70;99.90
2723;DHT22;1369;53.216;10.396;2022-11-20T08:38:32;2.80;99.90
2723;DHT22;1369;53.216;10.396;2022-11-20T08:40:59;2.90;99.90
2723;DHT22;1369;53.216;10.396;2022-11-20T08:43:43;2.90;99.90
2723;DHT22;1369;53.216;10.396;2022-11-20T08:46:09;3.00;99.90
2723;DHT22;1369;53.216;10.396;2022-11-20T08:48:34;3.00;99.90
2723;DHT22;1369;53.216;10.396;2022-11-20T08:50:59;3.00;99.90
2723;DHT22;1369;53.216;10.396;2022-11-20T08:53:26;3.00;99.90
2723;DHT22;1369;53.216;10.396;2022-11-20T08:55:51;3.00;99.90
2723;DHT22;1369;53.216;10.396;2022-11-20T08:58:17;3.00;99.90
2723;DHT22;1369;53.216;10.396;2022-11-20T09:00:42;3.10;99.90
2723;DHT22;1369;53.216;10.396;2022-11-20T09:03:08;3.20;99.90
2723;DHT22;1369;53.216;10.396;2022-11-20T09:05:34;3.30;99.90
2723;DHT22;1369;53.216;10.396;2022-11-20T09:07:59;3.30;99.90
2723;DHT22;1369;53.216;10.396;2022-11-20T09:10:26;3.40;99.90
2723;DHT22;1369;53.216;10.396;2022-11-20T09:12:52;3.50;99.90
2723;DHT22;1369;53.216;10.396;2022-11-20T09:15:18;3.70;99.90
2723;DHT22;1369;53.216;10.396;2022-11-20T09:17:54;3.80;99.90
2723;DHT22;1369;53.216;10.396;2022-11-20T09:20:20;3.90;99.90
2723;DHT22;1369;53.216;10.396;2022-11-20T09:22:46;3.90;99.90
2723;DHT22;1369;53.216;10.396;2022-11-20T09:25:11;4.00;99.90
2723;DHT22;1369;53.216;10.396;2022-11-20T09:27:37;4.00;99.90
2723;DHT22;1369;53.216;10.396;2022-11-20T09:30:03;4.10;99.90
2723;DHT22;1369;53.216;10.396;2022-11-20T09:32:29;4.30;99.90
2723;DHT22;1369;53.216;10.396;2022-11-20T09:34:54;4.40;99.90
2723;DHT22;1369;53.216;10.396;2022-11-20T09:37:20;4.50;99.90
2723;DHT22;1369;53.216;10.396;2022-11-20T09:39:45;4.60;99.90
2723;DHT22;1369;53.216;10.396;2022-11-20T09:45:24;4.70;99.90
2723;DHT22;1369;53.216;10.396;2022-11-20T09:48:17;4.70;99.90
2723;DHT22;1369;53.216;10.396;2022-11-20T09:51:06;4.60;99.90
2723;DHT22;1369;53.216;10.396;2022-11-20T09:56:39;4.50;99.90
2723;DHT22;1369;53.216;10.396;2022-11-20T09:59:08;4.50;99.90
2723;DHT22;1369;53.216;10.396;2022-11-20T10:01:39;4.40;99.90
2723;DHT22;1369;53.216;10.396;2022-11-20T10:04:19;4.40;99.90
2723;DHT22;1369;53.216;10.396;2022-11-20T10:07:22;4.30;99.90
2723;DHT22;1369;53.216;10.396;2022-11-20T10:09:54;4.20;99.90
2723;DHT22;1369;53.216;10.396;2022-11-20T10:15:26;4.00;99.90
2723;DHT22;1369;53.216;10.396;2022-11-20T10:18:09;4.00;99.90
2723;DHT22;1369;53.216;10.396;2022-11-20T10:20:58;4.10;99.90
2723;DHT22;1369;53.216;10.396;2022-11-20T10:23:49;4.40;99.90
2723;DHT22;1369;53.216;10.396;2022-11-20T10:26:28;4.60;99.90
2723;DHT22;1369;53.216;10.396;2022-11-20T10:29:15;4.80;99.90
2723;DHT22;1369;53.216;10.396;2022-11-20T10:32:07;5.00;99.90
2723;DHT22;1369;53.216;10.396;2022-11-20T10:34:59;5.20;99.90
2723;DHT22;1369;53.216;10.396;2022-11-20T10:37:27;5.20;99.90
2723;DHT22;1369;53.216;10.396;2022-11-20T10:42:40;5.20;99.90
2723;DHT22;1369;53.216;10.396;2022-11-20T10:47:57;5.10;99.90
2723;DHT22;1369;53.216;10.396;2022-11-20T10:50:30;5.00;99.90
2723;DHT22;1369;53.216;10.396;2022-11-20T10:53:17;4.90;99.90
2723;DHT22;1369;53.216;10.396;2022-11-20T10:55:55;4.70;99.90
2723;DHT22;1369;53.216;10.396;2022-11-20T10:58:44;4.60;99.90
2723;DHT22;1369;53.216;10.396;2022-11-20T11:01:19;4.50;99.90
2723;DHT22;1369;53.216;10.396;2022-11-20T11:03:47;4.50;99.90
2723;DHT22;1369;53.216;10.396;2022-11-20T11:08:53;4.70;99.90
2723;DHT22;1369;53.216;10.396;2022-11-20T11:11:26;4.90;99.90
2723;DHT22;1369;53.216;10.396;2022-11-20T11:13:52;5.00;99.90
2723;DHT22;1369;53.216;10.396;2022-11-20T11:16:26;5.00;99.90
2723;DHT22;1369;53.216;10.396;2022-11-20T11:19:03;4.90;99.90
2723;DHT22;1369;53.216;10.396;2022-11-20T11:21:29;4.80;99.90
2723;DHT22;1369;53.216;10.396;2022-11-20T11:24:03;4.80;99.90
2723;DHT22;1369;53.216;10.396;2022-11-20T11:26:29;4.90;99.90
2723;DHT22;1369;53.216;10.396;2022-11-20T11:28:59;5.10;99.90
2723;DHT22;1369;53.216;10.396;2022-11-20T11:31:28;5.20;99.90
2723;DHT22;1369;53.216;10.396;2022-11-20T11:34:17;5.20;99.90
2723;DHT22;1369;53.216;10.396;2022-11-20T11:36:55;5.20;99.90
2723;DHT22;1369;53.216;10.396;2022-11-20T11:39:22;5.20;99.90
2723;DHT22;1369;53.216;10.396;2022-11-20T11:41:48;5.20;99.90
2723;DHT22;1369;53.216;10.396;2022-11-20T11:44:19;5.30;99.90
2723;DHT22;1369;53.216;10.396;2022-11-20T11:47:05;5.50;99.90
2723;DHT22;1369;53.216;10.396;2022-11-20T11:49:33;5.70;99.90
2723;DHT22;1369;53.216;10.396;2022-11-20T11:54:38;5.80;99.90
2723;DHT22;1369;53.216;10.396;2022-11-20T11:57:14;5.90;99.90
2723;DHT22;1369;53.216;10.396;2022-11-20T12:05:24;6.10;99.90
2723;DHT22;1369;53.216;10.396;2022-11-20T12:10:50;6.40;99.90
2723;DHT22;1369;53.216;10.396;2022-11-20T12:16:03;6.60;99.90
2723;DHT22;1369;53.216;10.396;2022-11-20T12:18:29;6.50;99.90
2723;DHT22;1369;53.216;10.396;2022-11-20T12:21:08;6.40;99.90
2723;DHT22;1369;53.216;10.396;2022-11-20T12:26:52;6.50;99.90
2723;DHT22;1369;53.216;10.396;2022-11-20T12:38:24;6.80;99.90
2723;DHT22;1369;53.216;10.396;2022-11-20T12:43:11;7.00;99.90
2723;DHT22;1369;53.216;10.396;2022-11-20T12:48:47;7.20;99.90
2723;DHT22;1369;53.216;10.396;2022-11-20T12:57:09;6.80;99.90
2723;DHT22;1369;53.216;10.396;2022-11-20T12:59:52;6.80;99.90
2723;DHT22;1369;53.216;10.396;2022-11-20T13:07:43;6.50;99.90
2723;DHT22;1369;53.216;10.396;2022-11-20T13:10:18;6.40;99.90
2723;DHT22;1369;53.216;10.396;2022-11-20T13:12:49;6.40;99.90
2723;DHT22;1369;53.216;10.396;2022-11-20T13:15:34;6.20;99.90
2723;DHT22;1369;53.216;10.396;2022-11-20T13:18:03;5.90;99.90
2723;DHT22;1369;53.216;10.396;2022-11-20T13:20:30;5.60;99.90
2723;DHT22;1369;53.216;10.396;2022-11-20T13:22:57;5.40;99.90
2723;DHT22;1369;53.216;10.396;2022-11-20T13:25:28;5.30;99.90
2723;DHT22;1369;53.216;10.396;2022-11-20T13:27:56;5.20;99.90
2723;DHT22;1369;53.216;10.396;2022-11-20T13:30:24;5.00;99.90
2723;DHT22;1369;53.216;10.396;2022-11-20T13:33:07;5.00;99.90
2723;DHT22;1369;53.216;10.396;2022-11-20T13:35:36;4.90;99.90
2723;DHT22;1369;53.216;10.396;2022-11-20T13:38:13;4.80;99.90
2723;DHT22;1369;53.216;10.396;2022-11-20T13:40:58;4.80;99.90
2723;DHT22;1369;53.216;10.396;2022-11-20T13:43:40;4.70;99.90
2723;DHT22;1369;53.216;10.396;2022-11-20T13:46:08;4.60;99.90
2723;DHT22;1369;53.216;10.396;2022-11-20T13:48:40;4.30;99.90
2723;DHT22;1369;53.216;10.396;2022-11-20T13:56:15;4.30;99.90
2723;DHT22;1369;53.216;10.396;2022-11-20T14:01:32;4.10;99.90
2723;DHT22;1369;53.216;10.396;2022-11-20T14:04:00;4.20;99.90
2723;DHT22;1369;53.216;10.396;2022-11-20T14:06:31;4.10;99.90
2723;DHT22;1369;53.216;10.396;2022-11-20T14:08:58;4.10;99.90
2723;DHT22;1369;53.216;10.396;2022-11-20T14:11:29;4.10;99.90
2723;DHT22;1369;53.216;10.396;2022-11-20T14:14:03;4.10;99.90
2723;DHT22;1369;53.216;10.396;2022-11-20T14:16:32;4.10;99.90
2723;DHT22;1369;53.216;10.396;2022-11-20T14:19:22;4.10;99.90
2723;DHT22;1369;53.216;10.396;2022-11-20T14:21:52;4.10;99.90
2723;DHT22;1369;53.216;10.396;2022-11-20T14:24:21;4.10;99.90
2723;DHT22;1369;53.216;10.396;2022-11-20T14:26:47;4.00;99.90
2723;DHT22;1369;53.216;10.396;2022-11-20T14:29:18;3.90;99.90
2723;DHT22;1369;53.216;10.396;2022-11-20T14:31:45;3.80;99.90
2723;DHT22;1369;53.216;10.396;2022-11-20T14:34:23;3.70;99.90
2723;DHT22;1369;53.216;10.396;2022-11-20T14:36:53;3.60;99.90
2723;DHT22;1369;53.216;10.396;2022-11-20T14:39:21;3.60;99.90
2723;DHT22;1369;53.216;10.396;2022-11-20T14:41:52;3.50;99.90
2723;DHT22;1369;53.216;10.396;2022-11-20T14:44:18;3.40;99.90
2723;DHT22;1369;53.216;10.396;2022-11-20T14:46:45;3.40;99.90
2723;DHT22;1369;53.216;10.396;2022-11-20T14:49:11;3.40;99.90
2723;DHT22;1369;53.216;10.396;2022-11-20T14:51:39;3.30;99.90
2723;DHT22;1369;53.216;10.396;2022-11-20T14:54:18;3.30;99.90
2723;DHT22;1369;53.216;10.396;2022-11-20T14:57:01;3.30;99.90
2723;DHT22;1369;53.216;10.396;2022-11-20T14:59:32;3.40;99.90
2723;DHT22;1369;53.216;10.396;2022-11-20T15:02:01;3.40;99.90
2723;DHT22;1369;53.216;10.396;2022-11-20T15:04:28;3.40;99.90
2723;DHT22;1369;53.216;10.396;2022-11-20T15:06:55;3.50;99.90
2723;DHT22;1369;53.216;10.396;2022-11-20T15:09:21;3.50;99.90
2723;DHT22;1369;53.216;10.396;2022-11-20T15:12:01;3.40;99.90
2723;DHT22;1369;53.216;10.396;2022-11-20T15:14:28;3.40;99.90
2723;DHT22;1369;53.216;10.396;2022-11-20T15:16:55;3.40;99.90
2723;DHT22;1369;53.216;10.396;2022-11-20T15:19:22;3.20;99.90
2723;DHT22;1369;53.216;10.396;2022-11-20T15:21:49;3.10;99.90
2723;DHT22;1369;53.216;10.396;2022-11-20T15:24:15;2.90;99.90
2723;DHT22;1369;53.216;10.396;2022-11-20T15:26:41;2.70;99.90
2723;DHT22;1369;53.216;10.396;2022-11-20T15:29:11;2.60;99.90
2723;DHT22;1369;53.216;10.396;2022-11-20T15:31:38;2.50;99.90
2723;DHT22;1369;53.216;10.396;2022-11-20T15:34:11;2.40;99.90
2723;DHT22;1369;53.216;10.396;2022-11-20T15:36:38;2.30;99.90
2723;DHT22;1369;53.216;10.396;2022-11-20T15:39:04;2.30;99.90
2723;DHT22;1369;53.216;10.396;2022-11-20T15:41:29;2.30;99.90
2723;DHT22;1369;53.216;10.396;2022-11-20T15:43:55;2.20;99.90
2723;DHT22;1369;53.216;10.396;2022-11-20T15:46:26;2.20;99.90
2723;DHT22;1369;53.216;10.396;2022-11-20T15:48:55;2.10;99.90
2723;DHT22;1369;53.216;10.396;2022-11-20T15:51:29;2.20;99.90
2723;DHT22;1369;53.216;10.396;2022-11-20T15:53:56;2.10;99.90
2723;DHT22;1369;53.216;10.396;2022-11-20T15:56:21;2.10;99.90
2723;DHT22;1369;53.216;10.396;2022-11-20T15:58:47;2.20;99.90
2723;DHT22;1369;53.216;10.396;2022-11-20T16:01:15;2.30;99.90
2723;DHT22;1369;53.216;10.396;2022-11-20T16:03:41;2.30;99.90
2723;DHT22;1369;53.216;10.396;2022-11-20T16:06:07;2.20;99.90
2723;DHT22;1369;53.216;10.396;2022-11-20T16:08:33;2.20;99.90
2723;DHT22;1369;53.216;10.396;2022-11-20T16:10:58;2.20;99.90
2723;DHT22;1369;53.216;10.396;2022-11-20T16:13:24;2.20;99.90
2723;DHT22;1369;53.216;10.396;2022-11-20T16:16:18;2.10;99.90
2723;DHT22;1369;53.216;10.396;2022-11-20T16:18:46;2.20;99.90
2723;DHT22;1369;53.216;10.396;2022-11-20T16:21:12;2.20;99.90
2723;DHT22;1369;53.216;10.396;2022-11-20T16:23:41;2.20;99.90
2723;DHT22;1369;53.216;10.396;2022-11-20T16:26:15;2.20;99.90
2723;DHT22;1369;53.216;10.396;2022-11-20T16:28:42;2.20;99.90
2723;DHT22;1369;53.216;10.396;2022-11-20T16:31:12;2.20;99.90
2723;DHT22;1369;53.216;10.396;2022-11-20T16:33:38;2.10;99.90
2723;DHT22;1369;53.216;10.396;2022-11-20T16:36:11;2.10;99.90
2723;DHT22;1369;53.216;10.396;2022-11-20T16:38:37;2.00;99.90
2723;DHT22;1369;53.216;10.396;2022-11-20T16:41:03;2.00;99.90
2723;DHT22;1369;53.216;10.396;2022-11-20T16:43:29;2.00;99.90
2723;DHT22;1369;53.216;10.396;2022-11-20T16:45:54;2.10;99.90
2723;DHT22;1369;53.216;10.396;2022-11-20T16:48:20;2.10;99.90
2723;DHT22;1369;53.216;10.396;2022-11-20T16:50:48;2.10;99.90
2723;DHT22;1369;53.216;10.396;2022-11-20T16:53:14;2.20;99.90
2723;DHT22;1369;53.216;10.396;2022-11-20T16:55:39;2.20;99.90
2723;DHT22;1369;53.216;10.396;2022-11-20T16:58:05;2.20;99.90
2723;DHT22;1369;53.216;10.396;2022-11-20T17:00:30;2.20;99.90
2723;DHT22;1369;53.216;10.396;2022-11-20T17:02:55;2.20;99.90
2723;DHT22;1369;53.216;10.396;2022-11-20T17:05:21;2.20;99.90
2723;DHT22;1369;53.216;10.396;2022-11-20T17:07:46;2.20;99.90
2723;DHT22;1369;53.216;10.396;2022-11-20T17:10:12;2.10;99.90
2723;DHT22;1369;53.216;10.396;2022-11-20T17:12:37;2.10;99.90
2723;DHT22;1369;53.216;10.396;2022-11-20T17:15:03;2.00;99.90
2723;DHT22;1369;53.216;10.396;2022-11-20T17:17:29;1.90;99.90
2723;DHT22;1369;53.216;10.396;2022-11-20T17:19:54;1.80;99.90
2723;DHT22;1369;53.216;10.396;2022-11-20T17:22:19;1.70;99.90
2723;DHT22;1369;53.216;10.396;2022-11-20T17:24:45;1.60;99.90
2723;DHT22;1369;53.216;10.396;2022-11-20T17:27:10;1.50;99.90